sensor_id;sensor_type;location;lat;lon;timestamp;P1;durP1;ratioP1;P2;durP2;ratioP2
22963;SDS011;11648;49.306;6.934;2023-08-17T00:02:26;5.73;;;3.07;;
22963;SDS011;11648;49.306;6.934;2023-08-17T00:04:53;4.30;;;2.77;;
22963;SDS011;11648;49.306;6.934;2023-08-17T00:07:20;6.57;;;2.60;;
22963;SDS011;11648;49.306;6.934;2023-08-17T00:09:47;4.07;;;2.40;;
22963;SDS011;11648;49.306;6.934;2023-08-17T00:12:14;5.00;;;2.40;;
22963;SDS011;11648;49.306;6.934;2023-08-17T00:14:41;4.87;;;2.43;;
22963;SDS011;11648;49.306;6.934;2023-08-17T00:17:07;6.40;;;2.27;;
22963;SDS011;11648;49.306;6.934;2023-08-17T00:19:34;4.83;;;2.00;;
22963;SDS011;11648;49.306;6.934;2023-08-17T00:22:01;7.43;;;1.93;;
22963;SDS011;11648;49.306;6.934;2023-08-17T00:24:28;4.97;;;2.50;;
22963;SDS011;11648;49.306;6.934;2023-08-17T00:26:54;9.43;;;2.73;;
22963;SDS011;11648;49.306;6.934;2023-08-17T00:29:22;8.67;;;2.30;;
22963;SDS011;11648;49.306;6.934;2023-08-17T00:31:49;5.80;;;2.70;;
22963;SDS011;11648;49.306;6.934;2023-08-17T00:34:16;8.73;;;3.33;;
22963;SDS011;11648;49.306;6.934;2023-08-17T00:36:43;5.00;;;3.40;;
22963;SDS011;11648;49.306;6.934;2023-08-17T00:39:10;14.33;;;2.73;;
22963;SDS011;11648;49.306;6.934;2023-08-17T00:41:42;6.13;;;2.60;;
22963;SDS011;11648;49.306;6.934;2023-08-17T00:44:09;6.87;;;2.57;;
22963;SDS011;11648;49.306;6.934;2023-08-17T00:46:36;9.60;;;2.77;;
22963;SDS011;11648;49.306;6.934;2023-08-17T00:49:04;4.63;;;3.00;;
22963;SDS011;11648;49.306;6.934;2023-08-17T00:51:33;5.23;;;2.20;;
22963;SDS011;11648;49.306;6.934;2023-08-17T00:54:01;5.57;;;2.17;;
22963;SDS011;11648;49.306;6.934;2023-08-17T00:56:29;8.67;;;2.40;;
22963;SDS011;11648;49.306;6.934;2023-08-17T00:58:56;5.87;;;2.50;;
22963;SDS011;11648;49.306;6.934;2023-08-17T01:01:23;13.00;;;3.07;;
22963;SDS011;11648;49.306;6.934;2023-08-17T01:03:50;6.33;;;2.97;;
22963;SDS011;11648;49.306;6.934;2023-08-17T01:06:18;5.53;;;2.93;;
22963;SDS011;11648;49.306;6.934;2023-08-17T01:08:45;6.53;;;2.53;;
22963;SDS011;11648;49.306;6.934;2023-08-17T01:11:16;5.03;;;2.90;;
22963;SDS011;11648;49.306;6.934;2023-08-17T01:16:22;3.23;;;2.20;;
22963;SDS011;11648;49.306;6.934;2023-08-17T01:18:54;5.20;;;3.07;;
22963;SDS011;11648;49.306;6.934;2023-08-17T01:21:24;9.33;;;3.47;;
22963;SDS011;11648;49.306;6.934;2023-08-17T01:23:51;13.00;;;3.57;;
22963;SDS011;11648;49.306;6.934;2023-08-17T01:26:17;5.53;;;3.40;;
22963;SDS011;11648;49.306;6.934;2023-08-17T01:28:45;5.93;;;4.13;;
22963;SDS011;11648;49.306;6.934;2023-08-17T01:31:15;8.03;;;4.20;;
22963;SDS011;11648;49.306;6.934;2023-08-17T01:34:05;5.77;;;3.57;;
22963;SDS011;11648;49.306;6.934;2023-08-17T01:36:39;9.37;;;3.93;;
22963;SDS011;11648;49.306;6.934;2023-08-17T01:39:12;7.83;;;3.53;;
22963;SDS011;11648;49.306;6.934;2023-08-17T01:41:40;7.70;;;3.50;;
22963;SDS011;11648;49.306;6.934;2023-08-17T01:44:08;7.70;;;3.87;;
22963;SDS011;11648;49.306;6.934;2023-08-17T01:46:35;7.63;;;3.50;;
22963;SDS011;11648;49.306;6.934;2023-08-17T01:49:01;11.63;;;3.70;;
22963;SDS011;11648;49.306;6.934;2023-08-17T01:51:29;10.53;;;3.60;;
22963;SDS011;11648;49.306;6.934;2023-08-17T01:53:56;8.10;;;3.40;;
22963;SDS011;11648;49.306;6.934;2023-08-17T01:56:23;8.27;;;3.60;;
22963;SDS011;11648;49.306;6.934;2023-08-17T01:58:50;8.40;;;4.13;;
22963;SDS011;11648;49.306;6.934;2023-08-17T02:01:16;7.67;;;3.87;;
22963;SDS011;11648;49.306;6.934;2023-08-17T02:03:43;6.90;;;3.03;;
22963;SDS011;11648;49.306;6.934;2023-08-17T02:06:10;7.00;;;4.17;;
22963;SDS011;11648;49.306;6.934;2023-08-17T02:08:37;5.43;;;3.50;;
22963;SDS011;11648;49.306;6.934;2023-08-17T02:11:04;5.70;;;3.83;;
22963;SDS011;11648;49.306;6.934;2023-08-17T02:13:31;7.60;;;3.50;;
22963;SDS011;11648;49.306;6.934;2023-08-17T02:16:02;8.20;;;3.73;;
22963;SDS011;11648;49.306;6.934;2023-08-17T02:18:30;4.90;;;3.17;;
22963;SDS011;11648;49.306;6.934;2023-08-17T02:20:59;4.27;;;2.93;;
22963;SDS011;11648;49.306;6.934;2023-08-17T02:23:26;4.87;;;3.03;;
22963;SDS011;11648;49.306;6.934;2023-08-17T02:25:53;4.80;;;3.27;;
22963;SDS011;11648;49.306;6.934;2023-08-17T02:28:20;4.80;;;2.97;;
22963;SDS011;11648;49.306;6.934;2023-08-17T02:30:48;7.53;;;3.90;;
22963;SDS011;11648;49.306;6.934;2023-08-17T02:33:15;7.17;;;3.00;;
22963;SDS011;11648;49.306;6.934;2023-08-17T02:35:42;8.53;;;3.37;;
22963;SDS011;11648;49.306;6.934;2023-08-17T02:38:09;6.13;;;3.27;;
22963;SDS011;11648;49.306;6.934;2023-08-17T02:40:36;4.67;;;3.10;;
22963;SDS011;11648;49.306;6.934;2023-08-17T02:43:02;38.13;;;4.57;;
22963;SDS011;11648;49.306;6.934;2023-08-17T02:45:29;8.47;;;3.87;;
22963;SDS011;11648;49.306;6.934;2023-08-17T02:47:56;4.87;;;3.20;;
22963;SDS011;11648;49.306;6.934;2023-08-17T02:50:23;6.63;;;4.33;;
22963;SDS011;11648;49.306;6.934;2023-08-17T02:52:50;13.87;;;5.23;;
22963;SDS011;11648;49.306;6.934;2023-08-17T02:55:17;18.83;;;5.13;;
22963;SDS011;11648;49.306;6.934;2023-08-17T02:57:44;4.70;;;3.70;;
22963;SDS011;11648;49.306;6.934;2023-08-17T03:00:11;4.93;;;3.60;;
22963;SDS011;11648;49.306;6.934;2023-08-17T03:02:38;4.90;;;3.77;;
22963;SDS011;11648;49.306;6.934;2023-08-17T03:05:05;7.07;;;4.83;;
22963;SDS011;11648;49.306;6.934;2023-08-17T03:07:32;9.07;;;5.47;;
22963;SDS011;11648;49.306;6.934;2023-08-17T03:09:58;11.03;;;4.90;;
22963;SDS011;11648;49.306;6.934;2023-08-17T03:12:25;6.67;;;4.40;;
22963;SDS011;11648;49.306;6.934;2023-08-17T03:14:52;5.73;;;4.07;;
22963;SDS011;11648;49.306;6.934;2023-08-17T03:17:19;4.87;;;3.97;;
22963;SDS011;11648;49.306;6.934;2023-08-17T03:19:46;8.87;;;4.27;;
22963;SDS011;11648;49.306;6.934;2023-08-17T03:22:15;8.20;;;4.10;;
22963;SDS011;11648;49.306;6.934;2023-08-17T03:24:42;5.57;;;3.73;;
22963;SDS011;11648;49.306;6.934;2023-08-17T03:27:08;12.40;;;4.37;;
22963;SDS011;11648;49.306;6.934;2023-08-17T03:29:35;20.57;;;4.60;;
22963;SDS011;11648;49.306;6.934;2023-08-17T03:32:02;4.93;;;3.83;;
22963;SDS011;11648;49.306;6.934;2023-08-17T03:34:29;5.70;;;4.10;;
22963;SDS011;11648;49.306;6.934;2023-08-17T03:36:56;5.53;;;4.07;;
22963;SDS011;11648;49.306;6.934;2023-08-17T03:39:24;4.57;;;3.97;;
22963;SDS011;11648;49.306;6.934;2023-08-17T03:41:51;4.43;;;3.77;;
22963;SDS011;11648;49.306;6.934;2023-08-17T03:44:18;4.23;;;3.47;;
22963;SDS011;11648;49.306;6.934;2023-08-17T03:46:44;5.00;;;4.30;;
22963;SDS011;11648;49.306;6.934;2023-08-17T03:49:12;7.93;;;4.27;;
22963;SDS011;11648;49.306;6.934;2023-08-17T03:51:39;7.33;;;4.00;;
22963;SDS011;11648;49.306;6.934;2023-08-17T03:54:06;4.37;;;3.27;;
22963;SDS011;11648;49.306;6.934;2023-08-17T03:56:32;7.10;;;3.57;;
22963;SDS011;11648;49.306;6.934;2023-08-17T03:58:59;5.63;;;3.60;;
22963;SDS011;11648;49.306;6.934;2023-08-17T04:01:26;4.20;;;3.30;;
22963;SDS011;11648;49.306;6.934;2023-08-17T04:03:54;3.80;;;3.10;;
22963;SDS011;11648;49.306;6.934;2023-08-17T04:06:21;4.20;;;3.17;;
22963;SDS011;11648;49.306;6.934;2023-08-17T04:08:48;3.77;;;3.37;;
22963;SDS011;11648;49.306;6.934;2023-08-17T04:11:15;4.43;;;3.60;;
22963;SDS011;11648;49.306;6.934;2023-08-17T04:13:41;2.50;;;2.07;;
22963;SDS011;11648;49.306;6.934;2023-08-17T04:16:08;4.60;;;2.67;;
22963;SDS011;11648;49.306;6.934;2023-08-17T04:18:35;4.57;;;2.47;;
22963;SDS011;11648;49.306;6.934;2023-08-17T04:21:02;2.70;;;2.20;;
22963;SDS011;11648;49.306;6.934;2023-08-17T04:23:29;10.80;;;3.07;;
22963;SDS011;11648;49.306;6.934;2023-08-17T04:25:55;5.87;;;2.87;;
22963;SDS011;11648;49.306;6.934;2023-08-17T04:28:23;6.47;;;2.80;;
22963;SDS011;11648;49.306;6.934;2023-08-17T04:30:51;4.03;;;3.20;;
22963;SDS011;11648;49.306;6.934;2023-08-17T04:33:18;3.00;;;2.53;;
22963;SDS011;11648;49.306;6.934;2023-08-17T04:35:48;3.73;;;2.50;;
22963;SDS011;11648;49.306;6.934;2023-08-17T04:38:16;3.77;;;2.50;;
22963;SDS011;11648;49.306;6.934;2023-08-17T04:40:43;3.43;;;2.27;;
22963;SDS011;11648;49.306;6.934;2023-08-17T04:43:10;17.33;;;2.27;;
22963;SDS011;11648;49.306;6.934;2023-08-17T04:45:37;2.77;;;2.47;;
22963;SDS011;11648;49.306;6.934;2023-08-17T04:48:05;2.37;;;1.73;;
22963;SDS011;11648;49.306;6.934;2023-08-17T04:50:32;5.67;;;2.13;;
22963;SDS011;11648;49.306;6.934;2023-08-17T04:53:00;2.20;;;1.33;;
22963;SDS011;11648;49.306;6.934;2023-08-17T04:55:27;5.77;;;2.00;;
22963;SDS011;11648;49.306;6.934;2023-08-17T04:57:54;1.73;;;1.40;;
22963;SDS011;11648;49.306;6.934;2023-08-17T05:00:21;1.90;;;1.60;;
22963;SDS011;11648;49.306;6.934;2023-08-17T05:02:55;2.57;;;1.87;;
22963;SDS011;11648;49.306;6.934;2023-08-17T05:05:24;3.80;;;1.70;;
22963;SDS011;11648;49.306;6.934;2023-08-17T05:07:52;2.07;;;1.40;;
22963;SDS011;11648;49.306;6.934;2023-08-17T05:10:19;1.67;;;1.30;;
22963;SDS011;11648;49.306;6.934;2023-08-17T05:12:46;2.73;;;1.80;;
22963;SDS011;11648;49.306;6.934;2023-08-17T05:15:13;1.50;;;1.20;;
22963;SDS011;11648;49.306;6.934;2023-08-17T05:17:40;1.63;;;1.20;;
22963;SDS011;11648;49.306;6.934;2023-08-17T05:20:09;1.63;;;1.00;;
22963;SDS011;11648;49.306;6.934;2023-08-17T05:22:36;2.50;;;1.13;;
22963;SDS011;11648;49.306;6.934;2023-08-17T05:25:03;2.87;;;1.67;;
22963;SDS011;11648;49.306;6.934;2023-08-17T05:27:32;1.70;;;1.40;;
22963;SDS011;11648;49.306;6.934;2023-08-17T05:29:59;2.00;;;1.50;;
22963;SDS011;11648;49.306;6.934;2023-08-17T05:32:26;3.53;;;1.50;;
22963;SDS011;11648;49.306;6.934;2023-08-17T05:34:54;1.90;;;1.30;;
22963;SDS011;11648;49.306;6.934;2023-08-17T05:37:20;2.10;;;1.77;;
22963;SDS011;11648;49.306;6.934;2023-08-17T05:39:47;1.23;;;0.97;;
22963;SDS011;11648;49.306;6.934;2023-08-17T05:42:14;2.70;;;1.50;;
22963;SDS011;11648;49.306;6.934;2023-08-17T05:44:41;2.27;;;1.87;;
22963;SDS011;11648;49.306;6.934;2023-08-17T05:47:07;2.37;;;1.40;;
22963;SDS011;11648;49.306;6.934;2023-08-17T05:49:34;2.67;;;1.30;;
22963;SDS011;11648;49.306;6.934;2023-08-17T05:52:01;2.33;;;1.40;;
22963;SDS011;11648;49.306;6.934;2023-08-17T05:54:27;1.50;;;1.00;;
22963;SDS011;11648;49.306;6.934;2023-08-17T05:56:54;3.57;;;1.40;;
22963;SDS011;11648;49.306;6.934;2023-08-17T05:59:21;1.30;;;0.97;;
22963;SDS011;11648;49.306;6.934;2023-08-17T06:01:48;1.30;;;1.07;;
22963;SDS011;11648;49.306;6.934;2023-08-17T06:04:14;1.40;;;1.10;;
22963;SDS011;11648;49.306;6.934;2023-08-17T06:06:41;2.97;;;1.47;;
22963;SDS011;11648;49.306;6.934;2023-08-17T06:09:08;1.63;;;1.13;;
22963;SDS011;11648;49.306;6.934;2023-08-17T06:11:37;3.60;;;1.63;;
22963;SDS011;11648;49.306;6.934;2023-08-17T06:14:05;2.07;;;1.50;;
22963;SDS011;11648;49.306;6.934;2023-08-17T06:16:32;2.47;;;1.70;;
22963;SDS011;11648;49.306;6.934;2023-08-17T06:18:59;2.80;;;1.43;;
22963;SDS011;11648;49.306;6.934;2023-08-17T06:21:26;3.60;;;1.50;;
22963;SDS011;11648;49.306;6.934;2023-08-17T06:23:53;2.03;;;1.30;;
22963;SDS011;11648;49.306;6.934;2023-08-17T06:26:19;2.07;;;1.30;;
22963;SDS011;11648;49.306;6.934;2023-08-17T06:28:46;1.83;;;0.90;;
22963;SDS011;11648;49.306;6.934;2023-08-17T06:31:16;2.07;;;1.23;;
22963;SDS011;11648;49.306;6.934;2023-08-17T06:33:43;1.87;;;0.80;;
22963;SDS011;11648;49.306;6.934;2023-08-17T06:36:09;3.07;;;1.07;;
22963;SDS011;11648;49.306;6.934;2023-08-17T06:38:39;1.40;;;0.90;;
22963;SDS011;11648;49.306;6.934;2023-08-17T06:41:06;3.37;;;1.10;;
22963;SDS011;11648;49.306;6.934;2023-08-17T06:43:34;1.20;;;0.80;;
22963;SDS011;11648;49.306;6.934;2023-08-17T06:46:00;1.73;;;0.83;;
22963;SDS011;11648;49.306;6.934;2023-08-17T06:48:28;2.20;;;1.10;;
22963;SDS011;11648;49.306;6.934;2023-08-17T06:50:55;2.13;;;0.87;;
22963;SDS011;11648;49.306;6.934;2023-08-17T06:53:21;1.33;;;0.80;;
22963;SDS011;11648;49.306;6.934;2023-08-17T06:55:48;4.43;;;1.10;;
22963;SDS011;11648;49.306;6.934;2023-08-17T06:58:15;2.58;;;1.10;;
22963;SDS011;11648;49.306;6.934;2023-08-17T07:00:41;1.17;;;0.88;;
22963;SDS011;11648;49.306;6.934;2023-08-17T07:03:10;4.00;;;1.10;;
22963;SDS011;11648;49.306;6.934;2023-08-17T07:05:37;1.27;;;0.80;;
22963;SDS011;11648;49.306;6.934;2023-08-17T07:08:04;2.70;;;0.90;;
22963;SDS011;11648;49.306;6.934;2023-08-17T07:10:31;2.72;;;0.75;;
22963;SDS011;11648;49.306;6.934;2023-08-17T07:12:58;1.30;;;0.75;;
22963;SDS011;11648;49.306;6.934;2023-08-17T07:15:29;1.52;;;1.10;;
22963;SDS011;11648;49.306;6.934;2023-08-17T07:17:57;2.53;;;1.10;;
22963;SDS011;11648;49.306;6.934;2023-08-17T07:20:24;2.13;;;0.87;;
22963;SDS011;11648;49.306;6.934;2023-08-17T07:22:50;3.00;;;1.10;;
22963;SDS011;11648;49.306;6.934;2023-08-17T07:25:17;1.30;;;0.83;;
22963;SDS011;11648;49.306;6.934;2023-08-17T07:27:44;1.95;;;1.00;;
22963;SDS011;11648;49.306;6.934;2023-08-17T07:30:11;2.50;;;1.10;;
22963;SDS011;11648;49.306;6.934;2023-08-17T07:32:38;2.90;;;0.93;;
22963;SDS011;11648;49.306;6.934;2023-08-17T07:35:05;2.65;;;1.30;;
22963;SDS011;11648;49.306;6.934;2023-08-17T07:37:32;1.42;;;0.80;;
22963;SDS011;11648;49.306;6.934;2023-08-17T07:40:00;3.03;;;0.90;;
22963;SDS011;11648;49.306;6.934;2023-08-17T07:42:30;1.35;;;0.80;;
22963;SDS011;11648;49.306;6.934;2023-08-17T07:44:57;2.03;;;1.02;;
22963;SDS011;11648;49.306;6.934;2023-08-17T07:47:24;2.08;;;1.10;;
22963;SDS011;11648;49.306;6.934;2023-08-17T07:49:52;2.13;;;1.20;;
22963;SDS011;11648;49.306;6.934;2023-08-17T07:52:18;3.35;;;1.10;;
22963;SDS011;11648;49.306;6.934;2023-08-17T07:54:45;2.50;;;0.90;;
22963;SDS011;11648;49.306;6.934;2023-08-17T07:57:12;2.85;;;0.88;;
22963;SDS011;11648;49.306;6.934;2023-08-17T07:59:41;2.35;;;1.02;;
22963;SDS011;11648;49.306;6.934;2023-08-17T08:02:08;1.58;;;0.90;;
22963;SDS011;11648;49.306;6.934;2023-08-17T08:04:34;2.72;;;1.15;;
22963;SDS011;11648;49.306;6.934;2023-08-17T08:07:01;1.30;;;0.98;;
22963;SDS011;11648;49.306;6.934;2023-08-17T08:09:28;2.20;;;1.00;;
22963;SDS011;11648;49.306;6.934;2023-08-17T08:11:55;2.00;;;1.15;;
22963;SDS011;11648;49.306;6.934;2023-08-17T08:14:21;1.75;;;1.08;;
22963;SDS011;11648;49.306;6.934;2023-08-17T08:16:48;1.65;;;0.95;;
22963;SDS011;11648;49.306;6.934;2023-08-17T08:19:15;2.15;;;1.00;;
22963;SDS011;11648;49.306;6.934;2023-08-17T08:21:41;6.68;;;0.80;;
22963;SDS011;11648;49.306;6.934;2023-08-17T08:24:08;1.15;;;0.77;;
22963;SDS011;11648;49.306;6.934;2023-08-17T08:26:47;1.30;;;0.70;;
22963;SDS011;11648;49.306;6.934;2023-08-17T08:29:14;2.55;;;0.70;;
22963;SDS011;11648;49.306;6.934;2023-08-17T08:31:41;1.40;;;0.70;;
22963;SDS011;11648;49.306;6.934;2023-08-17T08:34:08;2.75;;;0.70;;
22963;SDS011;11648;49.306;6.934;2023-08-17T08:36:34;1.15;;;0.60;;
22963;SDS011;11648;49.306;6.934;2023-08-17T08:39:01;2.15;;;0.70;;
22963;SDS011;11648;49.306;6.934;2023-08-17T08:41:28;1.27;;;0.60;;
22963;SDS011;11648;49.306;6.934;2023-08-17T08:43:56;1.02;;;0.70;;
22963;SDS011;11648;49.306;6.934;2023-08-17T08:46:23;1.00;;;0.50;;
22963;SDS011;11648;49.306;6.934;2023-08-17T08:48:53;1.50;;;0.63;;
22963;SDS011;11648;49.306;6.934;2023-08-17T08:51:23;2.10;;;0.85;;
22963;SDS011;11648;49.306;6.934;2023-08-17T08:54:00;2.65;;;0.82;;
22963;SDS011;11648;49.306;6.934;2023-08-17T08:56:31;2.85;;;1.00;;
22963;SDS011;11648;49.306;6.934;2023-08-17T08:59:02;1.38;;;1.00;;
22963;SDS011;11648;49.306;6.934;2023-08-17T09:01:30;1.50;;;1.00;;
22963;SDS011;11648;49.306;6.934;2023-08-17T09:04:01;1.25;;;0.77;;
22963;SDS011;11648;49.306;6.934;2023-08-17T09:06:29;2.97;;;1.08;;
22963;SDS011;11648;49.306;6.934;2023-08-17T09:08:57;2.20;;;1.20;;
22963;SDS011;11648;49.306;6.934;2023-08-17T09:11:26;2.25;;;1.10;;
22963;SDS011;11648;49.306;6.934;2023-08-17T09:13:52;2.00;;;1.17;;
22963;SDS011;11648;49.306;6.934;2023-08-17T09:16:23;1.77;;;0.90;;
22963;SDS011;11648;49.306;6.934;2023-08-17T09:18:54;1.60;;;1.02;;
22963;SDS011;11648;49.306;6.934;2023-08-17T09:21:23;2.17;;;1.05;;
22963;SDS011;11648;49.306;6.934;2023-08-17T09:23:55;1.30;;;0.90;;
22963;SDS011;11648;49.306;6.934;2023-08-17T09:26:29;2.25;;;0.95;;
22963;SDS011;11648;49.306;6.934;2023-08-17T09:28:57;1.90;;;0.90;;
22963;SDS011;11648;49.306;6.934;2023-08-17T09:31:25;4.28;;;0.98;;
22963;SDS011;11648;49.306;6.934;2023-08-17T09:33:52;2.10;;;0.70;;
22963;SDS011;11648;49.306;6.934;2023-08-17T09:36:20;2.42;;;0.80;;
22963;SDS011;11648;49.306;6.934;2023-08-17T09:38:50;1.90;;;0.80;;
22963;SDS011;11648;49.306;6.934;2023-08-17T09:41:18;2.22;;;0.95;;
22963;SDS011;11648;49.306;6.934;2023-08-17T09:43:48;2.55;;;1.05;;
22963;SDS011;11648;49.306;6.934;2023-08-17T09:46:15;2.47;;;0.95;;
22963;SDS011;11648;49.306;6.934;2023-08-17T09:48:45;2.03;;;1.00;;
22963;SDS011;11648;49.306;6.934;2023-08-17T09:51:17;1.17;;;0.90;;
22963;SDS011;11648;49.306;6.934;2023-08-17T09:53:44;3.15;;;1.00;;
22963;SDS011;11648;49.306;6.934;2023-08-17T09:56:10;2.53;;;0.98;;
22963;SDS011;11648;49.306;6.934;2023-08-17T09:58:41;3.10;;;1.10;;
22963;SDS011;11648;49.306;6.934;2023-08-17T10:01:08;1.75;;;1.00;;
22963;SDS011;11648;49.306;6.934;2023-08-17T10:03:35;1.80;;;1.20;;
22963;SDS011;11648;49.306;6.934;2023-08-17T10:06:06;2.45;;;1.23;;
22963;SDS011;11648;49.306;6.934;2023-08-17T10:08:42;2.50;;;1.40;;
22963;SDS011;11648;49.306;6.934;2023-08-17T10:11:10;2.85;;;1.60;;
22963;SDS011;11648;49.306;6.934;2023-08-17T10:16:22;2.83;;;1.40;;
22963;SDS011;11648;49.306;6.934;2023-08-17T10:19:05;3.33;;;1.20;;
22963;SDS011;11648;49.306;6.934;2023-08-17T10:21:46;2.58;;;1.40;;
22963;SDS011;11648;49.306;6.934;2023-08-17T10:24:18;3.83;;;1.40;;
22963;SDS011;11648;49.306;6.934;2023-08-17T10:26:46;2.28;;;1.50;;
22963;SDS011;11648;49.306;6.934;2023-08-17T10:29:13;3.15;;;1.50;;
22963;SDS011;11648;49.306;6.934;2023-08-17T10:31:45;2.20;;;1.50;;
22963;SDS011;11648;49.306;6.934;2023-08-17T10:34:13;2.10;;;1.38;;
22963;SDS011;11648;49.306;6.934;2023-08-17T10:36:43;2.97;;;1.60;;
22963;SDS011;11648;49.306;6.934;2023-08-17T10:39:21;2.28;;;1.50;;
22963;SDS011;11648;49.306;6.934;2023-08-17T10:41:55;2.78;;;1.52;;
22963;SDS011;11648;49.306;6.934;2023-08-17T10:47:31;3.65;;;1.90;;
22963;SDS011;11648;49.306;6.934;2023-08-17T10:52:31;3.20;;;2.00;;
22963;SDS011;11648;49.306;6.934;2023-08-17T10:55:00;4.53;;;2.33;;
22963;SDS011;11648;49.306;6.934;2023-08-17T11:00:18;3.03;;;1.80;;
22963;SDS011;11648;49.306;6.934;2023-08-17T11:02:58;3.33;;;1.93;;
22963;SDS011;11648;49.306;6.934;2023-08-17T11:08:11;2.63;;;1.50;;
22963;SDS011;11648;49.306;6.934;2023-08-17T11:11:02;3.20;;;1.97;;
22963;SDS011;11648;49.306;6.934;2023-08-17T11:13:34;3.17;;;2.10;;
22963;SDS011;11648;49.306;6.934;2023-08-17T11:16:03;4.37;;;2.10;;
22963;SDS011;11648;49.306;6.934;2023-08-17T11:18:31;5.18;;;1.90;;
22963;SDS011;11648;49.306;6.934;2023-08-17T11:20:59;4.35;;;1.85;;
22963;SDS011;11648;49.306;6.934;2023-08-17T11:23:28;3.05;;;1.60;;
22963;SDS011;11648;49.306;6.934;2023-08-17T11:25:56;2.50;;;1.55;;
22963;SDS011;11648;49.306;6.934;2023-08-17T11:28:24;4.38;;;2.08;;
22963;SDS011;11648;49.306;6.934;2023-08-17T11:31:01;5.05;;;1.90;;
22963;SDS011;11648;49.306;6.934;2023-08-17T11:33:46;4.05;;;1.85;;
22963;SDS011;11648;49.306;6.934;2023-08-17T11:36:13;2.95;;;1.48;;
22963;SDS011;11648;49.306;6.934;2023-08-17T11:38:43;2.67;;;1.50;;
22963;SDS011;11648;49.306;6.934;2023-08-17T11:41:11;3.30;;;1.90;;
22963;SDS011;11648;49.306;6.934;2023-08-17T11:43:41;3.55;;;1.77;;
22963;SDS011;11648;49.306;6.934;2023-08-17T11:46:08;3.05;;;1.75;;
22963;SDS011;11648;49.306;6.934;2023-08-17T11:48:38;2.65;;;1.42;;
22963;SDS011;11648;49.306;6.934;2023-08-17T11:51:05;2.65;;;1.30;;
22963;SDS011;11648;49.306;6.934;2023-08-17T11:53:35;2.35;;;1.50;;
22963;SDS011;11648;49.306;6.934;2023-08-17T11:56:03;4.13;;;1.50;;
22963;SDS011;11648;49.306;6.934;2023-08-17T12:01:13;3.92;;;1.75;;
22963;SDS011;11648;49.306;6.934;2023-08-17T12:03:43;5.57;;;2.10;;
22963;SDS011;11648;49.306;6.934;2023-08-17T12:06:10;3.63;;;1.75;;
22963;SDS011;11648;49.306;6.934;2023-08-17T12:08:41;1.98;;;1.50;;
22963;SDS011;11648;49.306;6.934;2023-08-17T12:11:13;3.38;;;2.05;;
22963;SDS011;11648;49.306;6.934;2023-08-17T12:13:48;3.65;;;1.85;;
22963;SDS011;11648;49.306;6.934;2023-08-17T12:16:18;4.15;;;2.00;;
22963;SDS011;11648;49.306;6.934;2023-08-17T12:18:47;3.58;;;1.77;;
22963;SDS011;11648;49.306;6.934;2023-08-17T12:21:15;3.03;;;2.15;;
22963;SDS011;11648;49.306;6.934;2023-08-17T12:23:42;2.88;;;2.03;;
22963;SDS011;11648;49.306;6.934;2023-08-17T12:26:09;3.13;;;2.45;;
22963;SDS011;11648;49.306;6.934;2023-08-17T12:28:36;2.92;;;1.90;;
22963;SDS011;11648;49.306;6.934;2023-08-17T12:31:05;2.80;;;1.77;;
22963;SDS011;11648;49.306;6.934;2023-08-17T12:33:32;5.07;;;2.08;;
22963;SDS011;11648;49.306;6.934;2023-08-17T12:35:59;3.35;;;1.95;;
22963;SDS011;11648;49.306;6.934;2023-08-17T12:38:26;2.38;;;1.45;;
22963;SDS011;11648;49.306;6.934;2023-08-17T12:40:53;3.60;;;1.75;;
22963;SDS011;11648;49.306;6.934;2023-08-17T12:43:20;3.65;;;1.48;;
22963;SDS011;11648;49.306;6.934;2023-08-17T12:45:46;2.30;;;1.70;;
22963;SDS011;11648;49.306;6.934;2023-08-17T12:48:13;3.85;;;1.70;;
22963;SDS011;11648;49.306;6.934;2023-08-17T12:50:40;2.90;;;1.55;;
22963;SDS011;11648;49.306;6.934;2023-08-17T12:53:13;3.45;;;1.60;;
22963;SDS011;11648;49.306;6.934;2023-08-17T12:55:39;2.97;;;1.50;;
22963;SDS011;11648;49.306;6.934;2023-08-17T12:58:09;3.75;;;1.40;;
22963;SDS011;11648;49.306;6.934;2023-08-17T13:00:36;2.55;;;1.42;;
22963;SDS011;11648;49.306;6.934;2023-08-17T13:03:03;3.00;;;1.73;;
22963;SDS011;11648;49.306;6.934;2023-08-17T13:05:30;2.13;;;1.52;;
22963;SDS011;11648;49.306;6.934;2023-08-17T13:07:57;3.33;;;1.80;;
22963;SDS011;11648;49.306;6.934;2023-08-17T13:10:24;2.47;;;2.15;;
22963;SDS011;11648;49.306;6.934;2023-08-17T13:12:51;2.75;;;1.70;;
22963;SDS011;11648;49.306;6.934;2023-08-17T13:15:24;3.25;;;1.75;;
22963;SDS011;11648;49.306;6.934;2023-08-17T13:17:51;2.60;;;2.05;;
22963;SDS011;11648;49.306;6.934;2023-08-17T13:20:18;4.07;;;2.20;;
22963;SDS011;11648;49.306;6.934;2023-08-17T13:22:44;2.65;;;2.05;;
22963;SDS011;11648;49.306;6.934;2023-08-17T13:25:11;5.28;;;2.08;;
22963;SDS011;11648;49.306;6.934;2023-08-17T13:27:38;4.57;;;2.05;;
22963;SDS011;11648;49.306;6.934;2023-08-17T13:30:07;5.22;;;2.20;;
22963;SDS011;11648;49.306;6.934;2023-08-17T13:32:38;3.28;;;2.08;;
22963;SDS011;11648;49.306;6.934;2023-08-17T13:35:05;4.57;;;2.30;;
22963;SDS011;11648;49.306;6.934;2023-08-17T13:37:32;3.20;;;2.40;;
22963;SDS011;11648;49.306;6.934;2023-08-17T13:39:59;5.53;;;2.20;;
22963;SDS011;11648;49.306;6.934;2023-08-17T13:42:26;4.13;;;2.38;;
22963;SDS011;11648;49.306;6.934;2023-08-17T13:44:54;3.40;;;2.35;;
22963;SDS011;11648;49.306;6.934;2023-08-17T13:47:21;3.03;;;2.53;;
22963;SDS011;11648;49.306;6.934;2023-08-17T13:49:47;3.63;;;2.30;;
22963;SDS011;11648;49.306;6.934;2023-08-17T13:52:14;4.32;;;2.33;;
22963;SDS011;11648;49.306;6.934;2023-08-17T13:54:41;4.32;;;2.38;;
22963;SDS011;11648;49.306;6.934;2023-08-17T13:57:08;2.75;;;2.10;;
22963;SDS011;11648;49.306;6.934;2023-08-17T13:59:34;3.15;;;2.47;;
22963;SDS011;11648;49.306;6.934;2023-08-17T14:02:01;3.97;;;1.95;;
22963;SDS011;11648;49.306;6.934;2023-08-17T14:04:28;3.55;;;2.13;;
22963;SDS011;11648;49.306;6.934;2023-08-17T14:06:55;3.58;;;2.17;;
22963;SDS011;11648;49.306;6.934;2023-08-17T14:09:21;4.10;;;2.47;;
22963;SDS011;11648;49.306;6.934;2023-08-17T14:11:48;3.45;;;2.45;;
22963;SDS011;11648;49.306;6.934;2023-08-17T14:14:18;4.88;;;2.90;;
22963;SDS011;11648;49.306;6.934;2023-08-17T14:16:45;4.75;;;2.40;;
22963;SDS011;11648;49.306;6.934;2023-08-17T14:19:11;3.90;;;2.53;;
22963;SDS011;11648;49.306;6.934;2023-08-17T14:21:38;4.43;;;2.42;;
22963;SDS011;11648;49.306;6.934;2023-08-17T14:24:05;3.90;;;2.40;;
22963;SDS011;11648;49.306;6.934;2023-08-17T14:26:37;4.93;;;2.45;;
22963;SDS011;11648;49.306;6.934;2023-08-17T14:29:03;3.80;;;2.30;;
22963;SDS011;11648;49.306;6.934;2023-08-17T14:31:39;3.47;;;2.08;;
22963;SDS011;11648;49.306;6.934;2023-08-17T14:34:06;3.65;;;2.22;;
22963;SDS011;11648;49.306;6.934;2023-08-17T14:36:33;3.47;;;2.45;;
22963;SDS011;11648;49.306;6.934;2023-08-17T14:38:59;3.22;;;1.92;;
22963;SDS011;11648;49.306;6.934;2023-08-17T14:41:26;4.68;;;2.10;;
22963;SDS011;11648;49.306;6.934;2023-08-17T14:44:01;3.88;;;2.33;;
22963;SDS011;11648;49.306;6.934;2023-08-17T14:46:29;4.85;;;2.05;;
22963;SDS011;11648;49.306;6.934;2023-08-17T14:48:56;4.07;;;2.28;;
22963;SDS011;11648;49.306;6.934;2023-08-17T14:51:23;3.10;;;2.50;;
22963;SDS011;11648;49.306;6.934;2023-08-17T14:53:57;4.43;;;2.53;;
22963;SDS011;11648;49.306;6.934;2023-08-17T14:56:23;2.97;;;2.20;;
22963;SDS011;11648;49.306;6.934;2023-08-17T14:58:50;3.92;;;2.58;;
22963;SDS011;11648;49.306;6.934;2023-08-17T15:01:17;4.50;;;2.60;;
22963;SDS011;11648;49.306;6.934;2023-08-17T15:03:44;3.95;;;2.35;;
22963;SDS011;11648;49.306;6.934;2023-08-17T15:06:12;3.38;;;2.22;;
22963;SDS011;11648;49.306;6.934;2023-08-17T15:08:58;4.03;;;2.47;;
22963;SDS011;11648;49.306;6.934;2023-08-17T15:11:25;3.75;;;2.20;;
22963;SDS011;11648;49.306;6.934;2023-08-17T15:13:52;3.80;;;2.47;;